KDOV/DOV METAR and TAF weather

Enter ICAO airport designator
Station Type Date Time Source
KDOV METAR 2020/09/21 05:56 UTC NOAA

KDOV 210556Z AUTO 01008KT 10SM CLR 11/04 A3049 RMK AO2 SLP328 T01130038 10137 20110 57007 TSNO $


Station Type Date Time Source
KDOV Decoded METAR 2020/09/21 05:56 UTC NOAA

Dover Air Force Base, DE, United States (KDOV) 39-08N 075-28W
Sep 21, 2020 - 01:56 AM EDT / 2020.09.21 0556 UTC
Wind: from the N (010 degrees) at 9 MPH (8 KT):0
Visibility: 10 mile(s):0
Sky conditions: clear
Temperature: 52.3 F (11.3 C)
Dew Point: 38.8 F (3.8 C)
Relative Humidity: 59%
Pressure (altimeter): 30.49 in. Hg (1032 hPa)
Pressure tendency: 0.02 inches (0.7 hPa) lower than three hours ago
ob: KDOV 210556Z AUTO 01008KT 10SM CLR 11/04 A3049 RMK AO2 SLP328 T01130038 10137 20110 57007 TSNO
cycle: 6

Station Type Date Time Source
KDOV TAF 2020/09/21 00:19 UTC NOAA

TAF KDOV 210000Z 2100/2206 05009KT 9999 SKC QNH3050INS
BECMG 2104/2105 03012KT 9999 SKC QNH3050INS
BECMG 2115/2116 04009KT 9999 SKC QNH3034INS TX18/2120Z TN08/2110Z

Example: see airport list